Time;durP1;ratioP1;P1;durP2;ratioP2;P2;SDS_P1;SDS_P2;PMS_P1;PMS_P2;Temp;Humidity;BMP_temperature;BMP_pressure;BME280_temperature;BME280_humidity;BME280_pressure;Samples;Min_cycle;Max_cycle;Signal;HPM_P1;HPM_P2
2022/03/28 00:00:05;;;;;;;14.73;6.40;;;;;;;1.63;72.38;99435.59;2627452;28;20052;-76
2022/03/28 00:01:21;;;;;;;12.63;6.13;;;;;;;1.62;72.34;99442.50;2627107;28;20044;-75
2022/03/28 00:02:40;;;;;;;16.67;7.45;;;;;;;1.60;72.75;99435.53;2627089;28;20506;-76
2022/03/28 00:03:56;;;;;;;14.38;7.45;;;;;;;1.56;72.60;99442.31;2626867;28;20090;-76
2022/03/28 00:05:16;;;;;;;14.63;6.72;;;;;;;1.55;72.62;99438.00;2626794;28;20055;-76
2022/03/28 00:06:32;;;;;;;11.40;6.35;;;;;;;1.50;72.58;99437.03;2627010;28;20051;-76
2022/03/28 00:07:47;;;;;;;16.77;7.10;;;;;;;1.45;73.04;99428.28;2627544;28;20066;-76
2022/03/28 00:09:05;;;;;;;15.15;6.78;;;;;;;1.41;73.51;99427.34;2627040;28;20101;-76
2022/03/28 00:10:21;;;;;;;14.48;6.75;;;;;;;1.42;72.95;99431.69;2627376;28;20043;-75
2022/03/28 00:11:36;;;;;;;12.57;6.85;;;;;;;1.38;73.01;99424.66;2627050;28;20422;-75
2022/03/28 00:12:52;;;;;;;14.27;7.07;;;;;;;1.39;73.69;99429.00;2627434;28;20468;-75
2022/03/28 00:14:09;;;;;;;11.63;6.50;;;;;;;1.41;73.79;99430.78;2626909;28;20063;-75
2022/03/28 00:15:24;;;;;;;13.40;7.07;;;;;;;1.40;73.85;99425.59;2627078;28;20135;-75
2022/03/28 00:16:40;;;;;;;15.43;6.80;;;;;;;1.43;74.27;99420.53;2626905;28;20056;-75
2022/03/28 00:17:56;;;;;;;13.50;6.82;;;;;;;1.44;74.44;99424.84;2627096;28;20052;-75
2022/03/28 00:19:12;;;;;;;14.82;6.93;;;;;;;1.38;74.76;99422.97;2627260;28;20418;-76
2022/03/28 00:20:27;;;;;;;13.07;6.43;;;;;;;1.37;74.22;99425.50;2626793;28;20048;-75
2022/03/28 00:21:43;;;;;;;11.05;6.00;;;;;;;1.24;73.88;99429.50;2627079;28;20044;-75
2022/03/28 00:22:58;;;;;;;11.75;6.53;;;;;;;1.19;73.65;99419.06;2627315;28;20513;-75
2022/03/28 00:24:14;;;;;;;12.02;6.75;;;;;;;1.22;74.19;99420.84;2627302;28;20052;-75
2022/03/28 00:25:30;;;;;;;13.63;6.65;;;;;;;1.27;75.32;99425.31;2626679;28;20171;-75
2022/03/28 00:26:45;;;;;;;12.85;6.65;;;;;;;1.31;75.75;99421.06;2627222;28;20051;-76
2022/03/28 00:28:01;;;;;;;16.67;7.03;;;;;;;1.34;75.76;99423.75;2627193;28;20044;-75
2022/03/28 00:29:17;;;;;;;12.32;6.47;;;;;;;1.36;75.26;99413.44;2627284;28;20394;-75
2022/03/28 00:30:33;;;;;;;13.65;6.80;;;;;;;1.34;75.68;99417.69;2627174;28;20048;-76
2022/03/28 00:31:48;;;;;;;13.93;7.00;;;;;;;1.33;75.60;99421.13;2626778;28;20120;-76
2022/03/28 00:33:04;;;;;;;12.82;6.60;;;;;;;1.32;75.23;99416.78;2627288;28;20522;-76
2022/03/28 00:34:21;;;;;;;14.20;6.97;;;;;;;1.33;75.92;99418.53;2627055;28;20055;-76
2022/03/28 00:35:37;;;;;;;14.30;6.85;;;;;;;1.27;75.89;99414.97;2627148;28;20048;-76
2022/03/28 00:36:53;;;;;;;13.57;6.55;;;;;;;1.22;75.54;99415.69;2626796;28;20350;-76
2022/03/28 00:38:09;;;;;;;19.70;8.13;;;;;;;1.20;75.75;99413.06;2626722;28;20052;-75
2022/03/28 00:39:25;;;;;;;12.40;6.20;;;;;;;1.21;76.08;99417.38;2626733;28;20044;-77
2022/03/28 00:40:42;;;;;;;12.65;6.20;;;;;;;1.19;77.04;99418.16;2627037;28;20406;-75
2022/03/28 00:41:58;;;;;;;12.70;6.75;;;;;;;1.26;77.58;99417.50;2626648;28;20105;-76
2022/03/28 00:43:13;;;;;;;14.25;7.40;;;;;;;1.26;77.95;99423.56;2626357;28;20101;-75
2022/03/28 00:44:30;;;;;;;16.20;7.22;;;;;;;1.29;78.07;99424.47;2627061;28;20063;-75
2022/03/28 00:45:46;;;;;;;12.90;6.68;;;;;;;1.40;77.30;99417.88;2627072;28;20495;-75
2022/03/28 00:47:02;;;;;;;14.55;6.95;;;;;;;1.36;76.26;99413.44;2626779;28;20344;-75
2022/03/28 00:48:18;;;;;;;14.45;6.88;;;;;;;1.29;75.28;99414.13;2627042;28;20051;-75
2022/03/28 00:49:34;;;;;;;12.82;6.25;;;;;;;1.25;75.33;99414.03;2627219;28;20402;-75
2022/03/28 00:50:50;;;;;;;13.32;6.55;;;;;;;1.22;75.02;99405.38;2626789;28;20085;-75
2022/03/28 00:52:07;;;;;;;15.57;6.80;;;;;;;1.20;75.16;99405.31;2626804;28;20052;-75
2022/03/28 00:53:24;;;;;;;13.95;6.80;;;;;;;1.20;74.78;99402.75;2626927;28;20437;-75
2022/03/28 00:54:40;;;;;;;16.83;7.30;;;;;;;1.20;74.35;99402.75;2626485;28;20414;-75
2022/03/28 00:55:55;;;;;;;13.50;7.32;;;;;;;1.19;74.08;99403.56;2627022;28;20086;-76
2022/03/28 00:57:11;;;;;;;13.85;6.38;;;;;;;1.16;73.95;99403.50;2626814;28;20406;-76
2022/03/28 00:58:26;;;;;;;11.73;5.80;;;;;;;1.10;73.70;99393.91;2627099;28;20391;-75
2022/03/28 00:59:42;;;;;;;12.45;6.65;;;;;;;1.04;74.05;99392.88;2627143;28;20067;-75
2022/03/28 01:00:58;;;;;;;11.60;6.47;;;;;;;0.97;74.37;99387.53;2626757;28;20524;-76
2022/03/28 01:02:13;;;;;;;14.85;6.82;;;;;;;0.93;74.63;99387.44;2626818;28;20048;-75
2022/03/28 01:03:29;;;;;;;13.40;6.13;;;;;;;0.91;75.13;99389.97;2626690;28;20048;-76
2022/03/28 01:04:44;;;;;;;14.05;6.63;;;;;;;0.95;75.65;99389.22;2626542;28;20056;-76
2022/03/28 01:06:00;;;;;;;13.70;6.53;;;;;;;0.97;75.56;99390.13;2627218;28;20047;-75
2022/03/28 01:07:17;;;;;;;12.05;6.45;;;;;;;0.97;75.64;99389.25;2626083;28;20056;-75
2022/03/28 01:08:34;;;;;;;12.18;6.85;;;;;;;1.02;75.51;99389.38;2626725;28;20493;-76
2022/03/28 01:09:50;;;;;;;14.50;6.82;;;;;;;0.99;75.49;99387.59;2626200;28;20415;-76
2022/03/28 01:11:08;;;;;;;14.93;6.47;;;;;;;0.99;75.88;99387.59;2626198;28;20264;-76
2022/03/28 01:12:25;;;;;;;14.80;7.07;;;;;;;0.91;76.94;99392.56;2626808;28;20526;-76
2022/03/28 01:13:42;;;;;;;15.32;7.13;;;;;;;0.86;77.74;99390.69;2627031;28;20072;-76
2022/03/28 01:14:58;;;;;;;15.77;7.40;;;;;;;0.78;77.89;99387.91;2626589;28;20403;-76
2022/03/28 01:16:14;;;;;;;15.88;7.43;;;;;;;0.70;78.19;99378.28;2627022;28;20513;-75
2022/03/28 01:19:04;;;;;;;15.50;7.32;;;;;;;0.61;78.28;99377.13;2626889;28;20048;-76
2022/03/28 01:20:19;;;;;;;14.95;7.47;;;;;;;0.60;78.08;99377.97;2627003;28;20051;-76
2022/03/28 01:21:35;;;;;;;17.40;7.78;;;;;;;0.61;78.02;99377.13;2626781;28;20056;-76
2022/03/28 01:22:50;;;;;;;17.85;6.95;;;;;;;0.63;77.43;99383.19;2626794;28;20105;-76
2022/03/28 01:24:06;;;;;;;14.95;6.82;;;;;;;0.63;77.14;99375.47;2626682;28;20052;-75
2022/03/28 01:25:24;;;;;;;14.02;7.07;;;;;;;0.63;76.45;99376.34;2626484;28;20398;-76
2022/03/28 01:26:40;;;;;;;14.30;6.65;;;;;;;0.62;76.28;99374.59;2626729;28;20454;-81
2022/03/28 01:27:58;;;;;;;14.30;6.78;;;;;;;0.58;76.16;99370.19;2626430;28;20060;-76
2022/03/28 01:29:14;;;;;;;15.48;6.97;;;;;;;0.55;76.36;99364.94;2626497;28;20076;-75
2022/03/28 01:30:32;;;;;;;14.40;7.28;;;;;;;0.53;76.36;99361.44;2626915;28;20422;-75
2022/03/28 01:31:47;;;;;;;12.80;6.90;;;;;;;0.53;76.34;99367.50;2627142;28;20384;-77
2022/03/28 01:33:02;;;;;;;14.90;6.40;;;;;;;0.48;76.70;99358.75;2626035;28;20056;-75
2022/03/28 01:34:20;;;;;;;14.43;6.78;;;;;;;0.46;76.60;99367.28;2626943;28;20774;-77
2022/03/28 01:35:38;;;;;;;14.23;6.65;;;;;;;0.47;77.00;99364.72;2626313;28;20083;-77
2022/03/28 01:36:54;;;;;;;13.00;6.65;;;;;;;0.46;76.24;99362.13;2626875;28;20051;-75
2022/03/28 01:38:11;;;;;;;15.60;6.80;;;;;;;0.40;76.25;99355.09;2626443;28;20079;-75
2022/03/28 01:39:27;;;;;;;14.30;6.22;;;;;;;0.35;76.16;99354.97;2626678;28;20547;-75
2022/03/28 01:40:45;;;;;;;12.57;6.05;;;;;;;0.35;76.26;99354.09;2626652;28;20079;-75
2022/03/28 01:42:01;;;;;;;16.33;6.85;;;;;;;0.33;76.72;99360.91;2626818;28;20495;-75
2022/03/28 01:43:17;;;;;;;13.50;6.88;;;;;;;0.30;78.03;99356.56;2626704;28;20109;-75
2022/03/28 01:44:33;;;;;;;12.07;6.28;;;;;;;0.26;77.61;99358.16;2626931;28;20075;-75
2022/03/28 01:45:50;;;;;;;15.57;6.70;;;;;;;0.26;77.65;99352.13;2626834;28;20839;-75
2022/03/28 01:47:05;;;;;;;13.50;6.60;;;;;;;0.33;78.10;99360.91;2626166;28;20510;-75
2022/03/28 01:48:21;;;;;;;17.92;6.65;;;;;;;0.35;78.52;99360.13;2626708;28;20079;-76
2022/03/28 01:49:36;;;;;;;12.25;6.85;;;;;;;0.37;78.51;99348.16;2626514;28;20067;-76
2022/03/28 01:50:52;;;;;;;16.45;7.07;;;;;;;0.38;78.33;99351.63;2626732;28;20044;-75
2022/03/28 01:52:08;;;;;;;14.15;6.70;;;;;;;0.35;77.84;99347.25;2626565;28;20048;-75
2022/03/28 01:53:23;;;;;;;12.27;6.50;;;;;;;0.33;77.50;99351.47;2626921;28;20402;-75
2022/03/28 01:54:39;;;;;;;11.85;6.40;;;;;;;0.31;77.63;99353.16;2626320;28;20044;-75
2022/03/28 01:55:54;;;;;;;11.52;6.45;;;;;;;0.31;77.69;99353.16;2626579;28;20044;-75
2022/03/28 01:57:10;;;;;;;12.05;6.35;;;;;;;0.27;78.49;99348.72;2626750;28;20659;-75
2022/03/28 01:58:26;;;;;;;12.05;6.30;;;;;;;0.25;79.00;99350.38;2626405;28;20487;-75
2022/03/28 01:59:41;;;;;;;12.82;7.15;;;;;;;0.24;78.98;99344.38;2626859;28;20426;-75
2022/03/28 02:00:57;;;;;;;12.02;6.45;;;;;;;0.23;78.40;99345.22;2627067;28;20048;-75
2022/03/28 02:02:12;;;;;;;12.43;6.50;;;;;;;0.19;77.45;99345.94;2626041;28;20052;-75
2022/03/28 02:03:28;;;;;;;14.68;6.75;;;;;;;0.17;77.27;99346.72;2626682;28;20055;-75
2022/03/28 02:04:43;;;;;;;12.20;6.68;;;;;;;0.11;76.90;99342.28;2627042;28;20470;-75
2022/03/28 02:05:59;;;;;;;14.32;6.88;;;;;;;0.08;77.23;99337.91;2626671;28;20075;-75
2022/03/28 02:07:16;;;;;;;14.82;6.32;;;;;;;0.06;77.21;99337.00;2626598;28;20534;-77
2022/03/28 02:08:34;;;;;;;14.02;7.15;;;;;;;0.05;77.34;99334.34;2625515;28;20131;-75
2022/03/28 02:09:50;;;;;;;13.13;6.70;;;;;;;0.01;77.49;99328.28;2626940;28;20054;-76
2022/03/28 02:11:05;;;;;;;12.18;6.50;;;;;;;-0.03;77.18;99327.31;2625981;28;20430;-76
2022/03/28 02:12:21;;;;;;;13.45;6.43;;;;;;;-0.07;77.37;99327.16;2626830;28;20055;-75
2022/03/28 02:13:37;;;;;;;17.27;7.30;;;;;;;-0.07;77.46;99327.16;2626704;28;20105;-75
2022/03/28 02:14:52;;;;;;;14.88;6.60;;;;;;;-0.11;77.91;99326.19;2626406;28;20051;-75
2022/03/28 02:16:09;;;;;;;13.60;7.03;;;;;;;-0.13;77.67;99320.13;2626317;28;20048;-75
2022/03/28 02:17:24;;;;;;;12.85;6.07;;;;;;;-0.13;78.01;99329.56;2626861;28;20052;-75
2022/03/28 02:18:40;;;;;;;16.58;6.97;;;;;;;-0.15;78.24;99325.22;2626500;28;20048;-76
2022/03/28 02:19:55;;;;;;;13.48;6.43;;;;;;;-0.18;78.95;99325.13;2626557;28;20529;-76
2022/03/28 02:21:11;;;;;;;13.57;6.32;;;;;;;-0.14;79.63;99326.13;2626243;28;20054;-75
2022/03/28 02:22:27;;;;;;;13.43;6.82;;;;;;;-0.12;79.41;99324.44;2626934;28;20052;-75
2022/03/28 02:23:42;;;;;;;14.20;6.57;;;;;;;-0.11;78.95;99326.19;2626706;28;20426;-75
2022/03/28 02:24:58;;;;;;;13.75;6.63;;;;;;;-0.11;78.74;99326.19;2626499;28;20044;-75
2022/03/28 02:26:14;;;;;;;15.30;6.90;;;;;;;-0.07;78.63;99325.47;2626383;28;20086;-75
2022/03/28 02:27:29;;;;;;;13.27;7.35;;;;;;;-0.03;78.84;99326.41;2626286;28;20092;-76
2022/03/28 02:28:45;;;;;;;14.40;7.20;;;;;;;0.01;78.95;99324.81;2626250;28;20044;-76
2022/03/28 02:30:01;;;;;;;13.27;6.78;;;;;;;0.03;78.86;99321.47;2627797;28;20047;-75
2022/03/28 02:31:16;;;;;;;16.70;7.18;;;;;;;0.03;79.02;99321.47;2628033;28;20210;-75
2022/03/28 02:32:32;;;;;;;12.45;6.72;;;;;;;-0.02;78.53;99316.19;2628478;28;20044;-76
2022/03/28 02:33:47;;;;;;;15.20;7.00;;;;;;;-0.04;78.37;99322.09;2628021;28;20044;-75
2022/03/28 02:35:05;;;;;;;12.38;6.65;;;;;;;-0.06;77.23;99318.63;2628681;28;20044;-75
2022/03/28 02:36:21;;;;;;;15.55;6.50;;;;;;;-0.08;76.80;99322.84;2628494;28;20517;-75
2022/03/28 02:37:36;;;;;;;12.98;6.45;;;;;;;-0.12;76.94;99319.31;2628351;28;20125;-76
2022/03/28 02:38:52;;;;;;;14.27;6.55;;;;;;;-0.15;77.25;99322.66;2628293;28;20047;-76
2022/03/28 02:40:08;;;;;;;12.85;7.00;;;;;;;-0.20;77.82;99316.50;2628418;28;20044;-76
2022/03/28 02:41:24;;;;;;;13.25;6.15;;;;;;;-0.28;77.74;99320.53;2628193;28;20446;-75
2022/03/28 02:42:39;;;;;;;12.68;6.05;;;;;;;-0.32;77.54;99323.84;2628071;28;20072;-75
2022/03/28 02:43:56;;;;;;;14.35;7.20;;;;;;;-0.36;77.57;99315.16;2628285;28;20105;-75
2022/03/28 02:45:11;;;;;;;14.52;7.38;;;;;;;-0.40;77.33;99315.06;2627133;28;20047;-76
2022/03/28 02:46:27;;;;;;;13.77;6.43;;;;;;;-0.45;78.02;99317.47;2628498;28;20055;-75
2022/03/28 02:47:43;;;;;;;17.38;7.00;;;;;;;-0.44;77.80;99311.50;2628063;28;20044;-75
2022/03/28 02:48:58;;;;;;;12.32;6.68;;;;;;;-0.40;77.91;99317.63;2627908;28;20048;-75
2022/03/28 02:50:14;;;;;;;18.42;6.93;;;;;;;-0.41;78.81;99314.16;2628273;28;20048;-76
2022/03/28 02:51:29;;;;;;;14.98;6.63;;;;;;;-0.41;78.89;99315.88;2628048;28;20052;-75
2022/03/28 02:52:45;;;;;;;13.13;6.70;;;;;;;-0.46;78.72;99320.88;2627841;28;20052;-76
2022/03/28 02:54:00;;;;;;;14.77;6.57;;;;;;;-0.51;77.95;99317.28;2628381;28;20048;-75
2022/03/28 02:55:17;;;;;;;12.43;6.35;;;;;;;-0.55;77.81;99316.34;2628020;28;20359;-76
2022/03/28 02:56:33;;;;;;;13.63;6.65;;;;;;;-0.58;78.37;99314.53;2627864;28;20059;-76
2022/03/28 02:57:49;;;;;;;15.35;6.90;;;;;;;-0.59;78.81;99317.03;2628056;28;20082;-76
2022/03/28 02:59:04;;;;;;;13.60;6.70;;;;;;;-0.61;79.23;99309.28;2627975;28;20040;-75
2022/03/28 03:00:21;;;;;;;16.58;7.97;;;;;;;-0.57;79.71;99313.69;2626861;28;20082;-75
2022/03/28 03:01:36;;;;;;;15.32;7.63;;;;;;;-0.56;80.46;99306.84;2627148;28;20075;-75
2022/03/28 03:02:52;;;;;;;14.48;7.15;;;;;;;-0.52;80.21;99306.13;2628019;28;20414;-75
2022/03/28 03:04:07;;;;;;;14.75;7.03;;;;;;;-0.52;78.92;99307.81;2627885;28;20052;-75
2022/03/28 03:05:23;;;;;;;16.35;7.00;;;;;;;-0.54;78.48;99305.22;2627987;28;20047;-75
2022/03/28 03:06:39;;;;;;;14.25;7.15;;;;;;;-0.54;78.67;99307.78;2627504;28;20048;-75
2022/03/28 03:07:54;;;;;;;15.40;6.90;;;;;;;-0.52;78.57;99308.69;2627985;28;20902;-76
2022/03/28 03:09:10;;;;;;;14.07;6.68;;;;;;;-0.50;78.16;99301.91;2627846;28;20595;-75
2022/03/28 03:10:25;;;;;;;13.10;6.53;;;;;;;-0.49;78.53;99302.75;2628104;28;20052;-75
2022/03/28 03:11:42;;;;;;;13.02;6.47;;;;;;;-0.51;78.61;99301.84;2628099;28;20105;-75
2022/03/28 03:12:58;;;;;;;13.57;6.70;;;;;;;-0.51;79.33;99295.00;2627425;28;20121;-75
2022/03/28 03:14:13;;;;;;;18.20;6.53;;;;;;;-0.42;79.02;99294.41;2627778;28;20070;-75
2022/03/28 03:15:29;;;;;;;15.25;7.18;;;;;;;-0.36;79.29;99293.72;2628098;28;20055;-76
2022/03/28 03:16:45;;;;;;;16.20;7.35;;;;;;;-0.32;79.36;99290.41;2626392;28;20129;-75
2022/03/28 03:18:00;;;;;;;12.95;6.32;;;;;;;-0.29;79.18;99290.50;2627569;28;20048;-75
2022/03/28 03:19:16;;;;;;;14.23;6.93;;;;;;;-0.36;78.48;99291.16;2627275;28;20044;-75
2022/03/28 03:20:32;;;;;;;14.73;6.32;;;;;;;-0.43;77.81;99288.38;2626896;28;20455;-76
2022/03/28 03:21:49;;;;;;;16.27;6.68;;;;;;;-0.45;77.58;99284.88;2626627;28;20048;-75
2022/03/28 03:23:04;;;;;;;13.40;6.32;;;;;;;-0.42;77.73;99291.84;2627465;28;20608;-76
2022/03/28 03:24:20;;;;;;;13.90;7.00;;;;;;;-0.40;77.83;99281.59;2627181;28;20044;-76
2022/03/28 03:25:36;;;;;;;11.32;5.95;;;;;;;-0.44;77.52;99289.22;2627180;28;20498;-76
2022/03/28 03:26:51;;;;;;;12.52;6.05;;;;;;;-0.42;77.79;99289.25;2627335;28;20172;-76
2022/03/28 03:28:07;;;;;;;12.00;6.75;;;;;;;-0.32;80.53;99291.28;2627028;28;20402;-75
2022/03/28 03:29:22;;;;;;;16.77;6.55;;;;;;;-0.29;81.71;99287.91;2627226;28;20388;-76
2022/03/28 03:30:38;;;;;;;14.05;6.93;;;;;;;-0.34;81.69;99292.94;2627633;28;20059;-76
2022/03/28 03:31:54;;;;;;;14.30;7.05;;;;;;;-0.52;81.89;99288.13;2627521;28;20114;-77
2022/03/28 03:33:09;;;;;;;17.33;7.68;;;;;;;-0.61;82.14;99298.13;2627807;28;20044;-75
2022/03/28 03:34:25;;;;;;;16.73;8.05;;;;;;;-0.68;82.46;99291.91;2627538;28;20036;-75
2022/03/28 03:35:41;;;;;;;15.75;7.45;;;;;;;-0.71;82.47;99299.53;2627802;28;21008;-76
2022/03/28 03:36:57;;;;;;;14.70;7.25;;;;;;;-0.72;82.01;99293.50;2626641;28;20064;-76
2022/03/28 03:38:12;;;;;;;14.80;7.43;;;;;;;-0.77;81.38;99296.75;2626573;28;20647;-75
2022/03/28 03:39:28;;;;;;;11.70;6.22;;;;;;;-0.83;81.19;99297.47;2624728;28;20043;-75
2022/03/28 03:40:43;;;;;;;15.32;6.63;;;;;;;-0.86;81.35;99294.78;2627444;28;20082;-76
2022/03/28 03:41:59;;;;;;;14.43;7.40;;;;;;;-0.83;81.04;99296.56;2626974;28;20092;-75
2022/03/28 03:43:15;;;;;;;13.38;6.65;;;;;;;-0.84;80.60;99299.97;2627149;28;20059;-75
2022/03/28 03:44:30;;;;;;;15.50;6.72;;;;;;;-0.88;81.18;99294.75;2627154;28;20083;-75
2022/03/28 03:45:46;;;;;;;13.90;6.93;;;;;;;-0.87;80.99;99298.16;2627251;28;20662;-75
2022/03/28 03:47:02;;;;;;;12.18;5.97;;;;;;;-0.87;80.32;99300.75;2626186;28;20047;-75
2022/03/28 03:48:19;;;;;;;15.43;6.22;;;;;;;-0.87;79.87;99295.59;2627359;28;20056;-75
2022/03/28 03:49:34;;;;;;;12.23;5.82;;;;;;;-0.89;79.66;99298.13;2627335;28;20193;-75
2022/03/28 03:50:50;;;;;;;12.60;6.40;;;;;;;-0.93;79.96;99300.56;2627674;28;20112;-76
2022/03/28 03:52:07;;;;;;;14.07;6.25;;;;;;;-0.93;79.99;99301.41;2627706;28;20615;-77
2022/03/28 03:53:22;;;;;;;12.88;6.93;;;;;;;-0.97;79.84;99303.88;2626862;28;20138;-75
2022/03/28 03:54:38;;;;;;;14.65;7.05;;;;;;;-1.02;80.73;99298.56;2627738;28;20055;-75
2022/03/28 03:55:53;;;;;;;12.38;6.22;;;;;;;-1.04;81.58;99301.06;2627429;28;20063;-76
2022/03/28 03:57:09;;;;;;;14.85;6.95;;;;;;;-1.04;81.94;99298.50;2627716;28;20456;-76
2022/03/28 03:58:25;;;;;;;16.23;7.75;;;;;;;-0.98;82.71;99299.50;2627031;28;20384;-75
2022/03/28 03:59:41;;;;;;;17.15;7.43;;;;;;;-0.95;83.10;99297.06;2627358;28;20052;-78
2022/03/28 04:00:56;;;;;;;13.45;6.78;;;;;;;-0.93;82.64;99298.00;2627160;28;20048;-77
2022/03/28 04:02:12;;;;;;;15.75;7.13;;;;;;;-0.87;82.98;99290.47;2627182;28;20487;-77
2022/03/28 04:03:28;;;;;;;13.90;7.38;;;;;;;-0.70;83.41;99288.44;2627787;28;20059;-77
2022/03/28 04:04:43;;;;;;;15.63;7.03;;;;;;;-0.71;83.37;99286.69;2626147;28;20100;-77
2022/03/28 04:05:59;;;;;;;15.07;7.32;;;;;;;-0.73;81.93;99288.34;2627063;28;20047;-75
2022/03/28 04:07:15;;;;;;;16.67;6.88;;;;;;;-0.74;81.40;99292.59;2626550;28;20052;-75
2022/03/28 04:08:30;;;;;;;13.15;6.82;;;;;;;-0.70;80.87;99283.28;2626360;28;20048;-76
2022/03/28 04:09:46;;;;;;;13.77;6.75;;;;;;;-0.75;80.40;99288.28;2627121;28;20063;-75
2022/03/28 04:11:01;;;;;;;12.88;6.25;;;;;;;-0.77;80.45;99281.31;2625879;28;20127;-75
2022/03/28 04:12:17;;;;;;;16.45;6.75;;;;;;;-0.84;79.92;99285.41;2626166;28;20119;-76
2022/03/28 04:13:34;;;;;;;14.82;6.93;;;;;;;-0.87;80.23;99281.06;2626966;28;20044;-75
2022/03/28 04:14:49;;;;;;;13.40;7.00;;;;;;;-0.82;81.43;99277.75;2626055;28;20047;-75
2022/03/28 04:16:05;;;;;;;14.50;6.97;;;;;;;-0.83;81.41;99271.75;2627554;28;20048;-75
2022/03/28 04:17:21;;;;;;;18.88;8.50;;;;;;;-0.85;81.83;99270.81;2626589;28;20051;-76
2022/03/28 04:18:37;;;;;;;16.13;7.22;;;;;;;-0.88;82.45;99270.72;2627201;28;20047;-75
2022/03/28 04:19:52;;;;;;;14.80;7.15;;;;;;;-0.89;81.83;99271.53;2626681;28;20048;-75
2022/03/28 04:21:08;;;;;;;14.60;6.88;;;;;;;-0.90;81.42;99269.81;2627138;28;20054;-74
2022/03/28 04:22:24;;;;;;;15.80;7.10;;;;;;;-0.91;80.98;99266.38;2626391;28;20395;-75
2022/03/28 04:23:40;;;;;;;18.77;8.13;;;;;;;-0.91;81.70;99263.81;2626960;28;20048;-75
2022/03/28 04:24:55;;;;;;;15.30;7.88;;;;;;;-0.89;81.54;99266.41;2627504;28;20059;-75
2022/03/28 04:26:11;;;;;;;15.98;7.80;;;;;;;-0.87;81.00;99260.50;2627112;28;20070;-74
2022/03/28 04:27:27;;;;;;;13.10;6.93;;;;;;;-0.86;81.05;99262.25;2625620;28;20059;-75
2022/03/28 04:28:42;;;;;;;15.82;7.07;;;;;;;-0.79;80.86;99271.00;2627019;28;20051;-74
2022/03/28 04:29:58;;;;;;;16.55;7.20;;;;;;;-0.76;81.57;99265.09;2626131;28;20052;-75
2022/03/28 04:31:13;;;;;;;12.63;6.80;;;;;;;-0.74;82.09;99266.03;2627274;28;20052;-75
2022/03/28 04:32:29;;;;;;;16.85;7.35;;;;;;;-0.78;81.96;99262.47;2626122;28;20048;-75
2022/03/28 04:33:44;;;;;;;15.15;7.20;;;;;;;-0.79;81.78;99270.13;2627441;28;20105;-75
2022/03/28 04:35:00;;;;;;;12.82;6.13;;;;;;;-0.82;81.70;99260.66;2626772;28;20051;-75
2022/03/28 04:36:16;;;;;;;14.95;6.60;;;;;;;-0.83;81.59;99258.91;2627224;28;20059;-75
2022/03/28 04:37:33;;;;;;;14.25;6.75;;;;;;;-0.88;81.32;99266.47;2627292;28;20043;-75
2022/03/28 04:38:49;;;;;;;16.48;6.95;;;;;;;-0.87;81.72;99264.75;2626884;28;20051;-77
2022/03/28 04:40:07;;;;;;;14.30;6.95;;;;;;;-0.84;81.87;99269.97;2627257;28;20079;-77
2022/03/28 04:41:23;;;;;;;16.73;7.22;;;;;;;-0.88;82.02;99263.88;2626602;28;20044;-78
2022/03/28 04:42:39;;;;;;;18.67;7.25;;;;;;;-0.90;82.05;99264.66;2627282;28;20048;-76
2022/03/28 04:43:54;;;;;;;17.73;7.20;;;;;;;-0.92;82.03;99264.59;2627062;28;20070;-77
2022/03/28 04:45:10;;;;;;;16.73;7.18;;;;;;;-0.94;82.99;99266.25;2627083;28;20043;-76
2022/03/28 04:46:25;;;;;;;15.65;7.45;;;;;;;-0.94;83.28;99276.53;2626002;28;20052;-76
2022/03/28 04:47:41;;;;;;;15.48;7.13;;;;;;;-0.86;83.25;99267.38;2626625;28;20347;-76
2022/03/28 04:48:57;;;;;;;13.15;7.07;;;;;;;-0.68;84.34;99263.63;2627167;28;20056;-76
2022/03/28 04:50:13;;;;;;;15.57;7.18;;;;;;;-0.54;84.66;99265.75;2626543;28;20052;-76
2022/03/28 04:51:28;;;;;;;16.52;7.43;;;;;;;-0.44;84.44;99262.63;2626624;28;20059;-78
2022/03/28 04:52:44;;;;;;;16.02;7.85;;;;;;;-0.32;83.86;99262.09;2627237;28;20060;-76
2022/03/28 04:54:00;;;;;;;15.70;7.93;;;;;;;-0.34;83.58;99261.19;2624940;28;20048;-77
2022/03/28 04:55:15;;;;;;;16.95;7.40;;;;;;;-0.32;83.27;99260.41;2627072;28;20453;-76
2022/03/28 04:56:34;;;;;;;15.88;7.18;;;;;;;-0.48;83.00;99253.94;2626817;28;20071;-78
2022/03/28 04:57:50;;;;;;;15.20;7.95;;;;;;;-0.61;82.71;99257.84;2626929;28;20552;-76
2022/03/28 04:59:06;;;;;;;14.55;7.07;;;;;;;-0.68;81.62;99255.06;2626428;28;20094;-76
2022/03/28 05:00:22;;;;;;;15.63;6.95;;;;;;;-0.73;81.78;99257.47;2626467;28;20055;-76
2022/03/28 05:01:37;;;;;;;16.35;8.13;;;;;;;-0.75;81.97;99248.84;2627216;28;20492;-76
2022/03/28 05:02:54;;;;;;;17.38;6.80;;;;;;;-0.76;81.76;99252.25;2626782;28;20066;-76
2022/03/28 05:04:09;;;;;;;15.45;7.60;;;;;;;-0.77;82.38;99256.50;2626245;28;20044;-76
2022/03/28 05:05:25;;;;;;;15.35;7.10;;;;;;;-0.77;82.44;99256.50;2627158;28;20632;-77
2022/03/28 05:06:40;;;;;;;16.92;7.82;;;;;;;-0.73;83.01;99260.91;2626160;28;20055;-76
2022/03/28 05:07:56;;;;;;;17.33;8.05;;;;;;;-0.78;83.33;99254.75;2626695;28;20076;-76
2022/03/28 05:09:12;;;;;;;19.75;8.25;;;;;;;-0.86;83.35;99261.34;2626342;28;20047;-76
2022/03/28 05:10:27;;;;;;;17.80;8.20;;;;;;;-0.95;83.50;99266.22;2627038;28;20044;-76
2022/03/28 05:11:43;;;;;;;19.60;8.18;;;;;;;-0.89;83.82;99266.41;2627349;28;20050;-76
2022/03/28 05:12:59;;;;;;;17.05;8.40;;;;;;;-0.86;83.94;99261.34;2626985;28;20525;-76
2022/03/28 05:14:14;;;;;;;19.55;8.35;;;;;;;-0.69;84.12;99258.44;2626719;28;20269;-77
2022/03/28 05:15:31;;;;;;;16.13;8.18;;;;;;;-0.59;83.02;99257.88;2627142;28;20355;-76
2022/03/28 05:16:47;;;;;;;18.33;8.15;;;;;;;-0.58;83.21;99259.63;2626637;28;20482;-76
2022/03/28 05:18:03;;;;;;;17.35;8.05;;;;;;;-0.62;83.13;99262.94;2626576;28;20135;-76
2022/03/28 05:19:18;;;;;;;18.55;8.95;;;;;;;-0.67;83.16;99261.94;2627006;28;20067;-76
2022/03/28 05:20:34;;;;;;;18.63;8.98;;;;;;;-0.72;83.18;99265.22;2624881;28;20036;-76
2022/03/28 05:21:50;;;;;;;22.80;8.93;;;;;;;-0.73;83.24;99262.63;2625948;28;20048;-76
2022/03/28 05:23:05;;;;;;;20.00;9.35;;;;;;;-0.75;83.34;99256.56;2626239;28;20334;-76
2022/03/28 05:24:21;;;;;;;22.42;10.18;;;;;;;-0.78;83.16;99257.34;2627052;28;20105;-77
2022/03/28 05:25:37;;;;;;;17.05;9.10;;;;;;;-0.81;83.80;99261.50;2626299;28;20090;-79
2022/03/28 05:26:52;;;;;;;18.88;8.90;;;;;;;-0.83;83.75;99258.00;2627248;28;20453;-76
2022/03/28 05:28:08;;;;;;;19.75;8.75;;;;;;;-0.83;83.93;99260.59;2626630;28;20410;-76
2022/03/28 05:29:24;;;;;;;22.95;9.48;;;;;;;-0.83;83.36;99255.44;2627069;28;20044;-77
2022/03/28 05:30:40;;;;;;;19.98;8.90;;;;;;;-0.89;83.12;99263.84;2626348;28;20071;-76
2022/03/28 05:31:55;;;;;;;18.50;8.32;;;;;;;-0.94;83.34;99260.25;2627047;28;20091;-76
2022/03/28 05:33:11;;;;;;;21.83;8.93;;;;;;;-0.95;83.15;99264.50;2627068;28;20127;-76
2022/03/28 05:34:30;;;;;;;19.58;8.70;;;;;;;-0.97;83.21;99262.72;2626630;28;20048;-76
2022/03/28 05:35:46;;;;;;;18.30;8.18;;;;;;;-0.95;82.96;99267.06;2626904;28;20059;-76
2022/03/28 05:37:05;;;;;;;15.82;8.57;;;;;;;-0.92;82.86;99266.31;2626709;28;20130;-80
2022/03/28 05:38:21;;;;;;;17.38;8.57;;;;;;;-0.91;82.90;99253.53;2626170;28;20496;-76
2022/03/28 05:39:37;;;;;;;18.02;8.82;;;;;;;-0.89;82.67;99259.56;2626109;28;20055;-76
2022/03/28 05:40:52;;;;;;;16.73;8.02;;;;;;;-0.87;82.29;99257.03;2626094;28;20074;-76
2022/03/28 05:42:08;;;;;;;20.90;9.63;;;;;;;-0.82;82.59;99257.19;2625638;28;20134;-76
2022/03/28 05:43:24;;;;;;;20.48;9.48;;;;;;;-0.76;82.72;99258.25;2625519;28;20039;-76
2022/03/28 05:44:41;;;;;;;18.85;8.93;;;;;;;-0.70;82.56;99257.56;2624823;28;20036;-76
2022/03/28 05:45:56;;;;;;;18.38;9.10;;;;;;;-0.68;82.71;99257.63;2625676;28;20052;-79
2022/03/28 05:47:12;;;;;;;17.33;9.50;;;;;;;-0.72;83.01;99249.78;2625518;28;20044;-78
2022/03/28 05:48:29;;;;;;;22.67;9.95;;;;;;;-0.69;83.53;99256.72;2626630;28;20449;-77
2022/03/28 05:49:44;;;;;;;19.85;8.90;;;;;;;-0.69;84.12;99255.88;2626603;28;20491;-77
2022/03/28 05:51:01;;;;;;;18.88;8.82;;;;;;;-0.72;84.69;99251.50;2627251;28;20431;-77
2022/03/28 05:52:16;;;;;;;26.70;9.85;;;;;;;-0.74;84.78;99248.88;2626178;28;20063;-76
2022/03/28 05:53:32;;;;;;;21.17;9.05;;;;;;;-0.72;84.53;99252.38;2627318;28;20406;-77
2022/03/28 05:54:48;;;;;;;23.10;10.40;;;;;;;-0.69;85.15;99251.59;2626396;28;20070;-77
2022/03/28 05:56:04;;;;;;;25.45;9.13;;;;;;;-0.58;85.07;99250.22;2626523;28;20056;-76